Time,TemperatureF,DewpointF,PressureIn,WindDirection,WindDirectionDegrees,WindSpeedMPH,WindSpeedGustMPH,Humidity,HourlyPrecipIn,Conditions,Clouds,dailyrainin,SoftwareType,DateUTC
2013-03-06 00:02:00,19.7,11.0,30.09,WNW,286,0.0,-999.0,70,-99.99,,,0.00,weatherlink.com 1.10,2013-03-06 07:02:00,
2013-03-06 00:17:00,19.7,11.0,30.08,WNW,286,0.0,-999.0,70,-99.99,,,0.00,weatherlink.com 1.10,2013-03-06 07:17:00,
2013-03-06 00:32:00,19.7,11.0,30.07,WNW,286,0.0,-999.0,69,-99.99,,,0.00,weatherlink.com 1.10,2013-03-06 07:32:00,
2013-03-06 00:47:00,19.5,12.0,30.06,WNW,286,0.0,-999.0,71,-99.99,,,0.00,weatherlink.com 1.10,2013-03-06 07:47:00,
2013-03-06 01:02:00,20.3,12.0,30.06,WNW,286,0.0,-999.0,70,-99.99,,,0.00,weatherlink.com 1.10,2013-03-06 08:02:00,
2013-03-06 01:17:00,19.7,11.0,30.05,WNW,286,0.0,-999.0,70,-99.99,,,0.00,weatherlink.com 1.10,2013-03-06 08:17:00,
2013-03-06 01:32:00,20.0,11.0,30.04,WNW,286,0.0,-999.0,68,-99.99,,,0.00,weatherlink.com 1.10,2013-03-06 08:32:00,
2013-03-06 01:47:00,18.3,10.0,30.04,WNW,286,1.0,-999.0,70,-99.99,,,0.00,weatherlink.com 1.10,2013-03-06 08:47:00,
2013-03-06 02:02:00,15.0,8.0,30.04,WNW,287,1.0,-999.0,75,-99.99,,,0.00,weatherlink.com 1.10,2013-03-06 09:02:00,
2013-03-06 02:17:00,16.0,10.0,30.04,WNW,287,1.0,-999.0,77,-99.99,,,0.00,weatherlink.com 1.10,2013-03-06 09:17:00,
2013-03-06 02:32:00,17.9,11.0,30.02,WNW,297,2.0,-999.0,75,-99.99,,,0.00,weatherlink.com 1.10,2013-03-06 09:32:00,
2013-03-06 02:47:00,20.2,12.0,30.01,NW,304,1.0,-999.0,70,-99.99,,,0.00,weatherlink.com 1.10,2013-03-06 09:47:00,
2013-03-06 03:02:00,21.5,12.0,30.00,NW,305,5.0,-999.0,68,-99.99,,,0.00,weatherlink.com 1.10,2013-03-06 10:02:00,
2013-03-06 03:17:00,22.9,13.0,29.99,NW,317,2.0,-999.0,66,-99.99,,,0.00,weatherlink.com 1.10,2013-03-06 10:17:00,
2013-03-06 03:32:00,22.8,13.0,29.97,NW,317,1.0,-999.0,66,-99.99,,,0.00,weatherlink.com 1.10,2013-03-06 10:32:00,
2013-03-06 03:47:00,22.8,13.0,29.97,NW,317,1.0,-999.0,66,-99.99,,,0.00,weatherlink.com 1.10,2013-03-06 10:47:00,
2013-03-06 04:02:00,23.9,14.0,29.96,NW,323,1.0,-999.0,65,-99.99,,,0.00,weatherlink.com 1.10,2013-03-06 11:02:00,
2013-03-06 04:17:00,24.0,14.0,29.95,NW,323,0.0,-999.0,66,-99.99,,,0.00,weatherlink.com 1.10,2013-03-06 11:17:00,
2013-03-06 04:32:00,23.3,14.0,29.95,NW,323,0.0,-999.0,67,-99.99,,,0.00,weatherlink.com 1.10,2013-03-06 11:32:00,
2013-03-06 04:47:00,24.7,15.0,29.95,NW,321,3.0,-999.0,66,-99.99,,,0.00,weatherlink.com 1.10,2013-03-06 11:47:00,
2013-03-06 05:02:00,32.2,18.0,29.94,South,182,7.0,-999.0,57,-99.99,,,0.00,weatherlink.com 1.10,2013-03-06 12:02:00,
2013-03-06 05:17:00,35.9,18.0,29.94,South,171,5.0,-999.0,49,-99.99,,,0.00,weatherlink.com 1.10,2013-03-06 12:17:00,
2013-03-06 05:32:00,35.4,19.0,29.92,SSW,205,5.0,-999.0,52,-99.99,,,0.00,weatherlink.com 1.10,2013-03-06 12:32:00,
2013-03-06 05:47:00,37.0,19.0,29.90,SE,136,7.0,-999.0,49,-99.99,,,0.00,weatherlink.com 1.10,2013-03-06 12:47:00,
2013-03-06 06:02:00,38.2,19.0,29.90,SSE,164,8.0,-999.0,47,-99.99,,,0.00,weatherlink.com 1.10,2013-03-06 13:02:00,
2013-03-06 06:17:00,38.0,19.0,29.89,SSE,148,9.0,-999.0,47,-99.99,,,0.00,weatherlink.com 1.10,2013-03-06 13:17:00,
2013-03-06 06:32:00,38.0,19.0,29.89,SSE,147,5.0,-999.0,47,-99.99,,,0.00,weatherlink.com 1.10,2013-03-06 13:32:00,
2013-03-06 06:47:00,37.7,19.0,29.88,SSE,165,6.0,-999.0,47,-99.99,,,0.00,weatherlink.com 1.10,2013-03-06 13:47:00,
2013-03-06 07:02:00,37.1,19.0,29.86,South,175,3.0,-999.0,49,-99.99,,,0.00,weatherlink.com 1.10,2013-03-06 14:02:00,
2013-03-06 07:17:00,37.7,20.0,29.86,SE,143,5.0,-999.0,50,-99.99,,,0.00,weatherlink.com 1.10,2013-03-06 14:17:00,
2013-03-06 07:32:00,37.8,21.0,29.85,SSE,153,7.0,-999.0,50,-99.99,,,0.00,weatherlink.com 1.10,2013-03-06 14:32:00,
2013-03-06 07:48:00,38.2,21.0,29.84,SSE,151,12.0,-999.0,50,-99.99,,,0.00,weatherlink.com 1.10,2013-03-06 14:48:00,
2013-03-06 08:03:00,38.7,21.0,29.83,ESE,122,6.0,-999.0,50,-99.99,,,0.00,weatherlink.com 1.10,2013-03-06 15:03:00,
2013-03-06 08:18:00,38.8,21.0,29.82,SE,134,6.0,-999.0,50,-99.99,,,0.00,weatherlink.com 1.10,2013-03-06 15:18:00,
2013-03-06 08:32:00,39.4,22.0,29.82,SE,142,7.0,-999.0,51,-99.99,,,0.00,weatherlink.com 1.10,2013-03-06 15:32:00,
2013-03-06 08:47:00,39.9,23.0,29.81,SSE,149,9.0,-999.0,51,-99.99,,,0.00,weatherlink.com 1.10,2013-03-06 15:47:00,
2013-03-06 09:03:00,40.2,23.0,29.81,SSE,152,12.0,-999.0,51,-99.99,,,0.00,weatherlink.com 1.10,2013-03-06 16:03:00,
2013-03-06 09:17:00,41.1,24.0,29.80,SSW,197,10.0,-999.0,51,-99.99,,,0.00,weatherlink.com 1.10,2013-03-06 16:17:00,
2013-03-06 09:34:00,41.4,24.0,29.78,SSW,194,7.0,-999.0,51,-99.99,,,0.00,weatherlink.com 1.10,2013-03-06 16:34:00,
2013-03-06 09:48:00,42.0,25.0,29.78,SSE,150,10.0,-999.0,51,-99.99,,,0.00,weatherlink.com 1.10,2013-03-06 16:48:00,
2013-03-06 10:02:00,42.0,25.0,29.77,SSW,192,18.0,-999.0,51,-99.99,,,0.00,weatherlink.com 1.10,2013-03-06 17:02:00,
2013-03-06 10:18:00,43.3,25.0,29.77,South,180,10.0,-999.0,49,-99.99,,,0.00,weatherlink.com 1.10,2013-03-06 17:18:00,
2013-03-06 10:32:00,42.6,25.0,29.76,SSW,197,9.0,-999.0,51,-99.99,,,0.00,weatherlink.com 1.10,2013-03-06 17:32:00,
2013-03-06 10:47:00,42.2,26.0,29.75,South,170,10.0,-999.0,53,-99.99,,,0.00,weatherlink.com 1.10,2013-03-06 17:47:00,
2013-03-06 11:03:00,42.9,26.0,29.74,SE,131,11.0,-999.0,51,-99.99,,,0.00,weatherlink.com 1.10,2013-03-06 18:03:00,
2013-03-06 11:18:00,42.7,26.0,29.74,ESE,111,8.0,-999.0,52,-99.99,,,0.00,weatherlink.com 1.10,2013-03-06 18:18:00,
2013-03-06 11:33:00,43.5,27.0,29.73,SSW,194,5.0,-999.0,52,-99.99,,,0.00,weatherlink.com 1.10,2013-03-06 18:33:00,
2013-03-06 11:48:00,42.8,26.0,29.73,SSW,192,8.0,-999.0,52,-99.99,,,0.00,weatherlink.com 1.10,2013-03-06 18:48:00,
2013-03-06 12:03:00,42.0,27.0,29.74,SSW,206,14.0,-999.0,55,-99.99,,,0.00,weatherlink.com 1.10,2013-03-06 19:03:00,
2013-03-06 12:17:00,39.0,29.0,29.74,SW,228,13.0,-999.0,67,-99.99,,,0.00,weatherlink.com 1.10,2013-03-06 19:17:00,
2013-03-06 12:33:00,38.1,29.0,29.73,WSW,246,10.0,-999.0,70,-99.99,,,0.00,weatherlink.com 1.10,2013-03-06 19:33:00,
2013-03-06 12:47:00,39.5,29.0,29.73,SSW,196,10.0,-999.0,65,-99.99,,,0.00,weatherlink.com 1.10,2013-03-06 19:47:00,
2013-03-06 13:02:00,40.0,30.0,29.72,SE,144,4.0,-999.0,67,-99.99,,,0.00,weatherlink.com 1.10,2013-03-06 20:02:00,
2013-03-06 13:18:00,39.2,29.0,29.71,SSE,158,7.0,-999.0,68,-99.99,,,0.00,weatherlink.com 1.10,2013-03-06 20:18:00,
2013-03-06 13:33:00,38.8,30.0,29.71,South,191,5.0,-999.0,70,-99.99,,,0.00,weatherlink.com 1.10,2013-03-06 20:33:00,
2013-03-06 13:48:00,38.3,30.0,29.70,SE,130,3.0,-999.0,73,-99.99,,,0.00,weatherlink.com 1.10,2013-03-06 20:48:00,
2013-03-06 14:03:00,38.8,30.0,29.69,SE,143,3.0,-999.0,72,-99.99,,,0.00,weatherlink.com 1.10,2013-03-06 21:03:00,
2013-03-06 14:18:00,39.6,30.0,29.68,South,188,3.0,-999.0,69,-99.99,,,0.00,weatherlink.com 1.10,2013-03-06 21:18:00,
2013-03-06 14:33:00,36.7,30.0,29.69,NNW,337,5.0,-999.0,77,-99.99,,,0.00,weatherlink.com 1.10,2013-03-06 21:33:00,
2013-03-06 14:49:00,35.1,30.0,29.70,WNW,285,12.0,-999.0,81,-99.99,,,0.00,weatherlink.com 1.10,2013-03-06 21:49:00,
2013-03-06 15:03:00,36.3,31.0,29.69,WSW,237,2.0,-999.0,82,-99.99,,,0.00,weatherlink.com 1.10,2013-03-06 22:03:00,
2013-03-06 15:17:00,38.8,32.0,29.68,SSW,212,1.0,-999.0,76,-99.99,,,0.00,weatherlink.com 1.10,2013-03-06 22:17:00,
2013-03-06 15:32:00,38.1,32.0,29.67,ENE,69,7.0,-999.0,77,-99.99,,,0.00,weatherlink.com 1.10,2013-03-06 22:32:00,
2013-03-06 15:48:00,36.8,31.0,29.66,ENE,76,1.0,-999.0,80,-99.99,,,0.00,weatherlink.com 1.10,2013-03-06 22:48:00,
2013-03-06 16:02:00,38.3,31.0,29.65,South,180,1.0,-999.0,74,-99.99,,,0.00,weatherlink.com 1.10,2013-03-06 23:02:00,
2013-03-06 16:17:00,39.6,29.0,29.65,SSW,192,6.0,-999.0,65,-99.99,,,0.00,weatherlink.com 1.10,2013-03-06 23:17:00,
2013-03-06 16:34:00,40.9,28.0,29.65,SSW,200,13.0,-999.0,61,-99.99,,,0.00,weatherlink.com 1.10,2013-03-06 23:34:00,
2013-03-06 16:48:00,41.5,27.0,29.65,South,183,22.0,-999.0,57,-99.99,,,0.00,weatherlink.com 1.10,2013-03-06 23:48:00,
2013-03-06 17:02:00,41.2,27.0,29.64,SSW,194,19.0,-999.0,58,-99.99,,,0.00,weatherlink.com 1.10,2013-03-07 00:02:00,
2013-03-06 17:18:00,40.7,27.0,29.65,SW,215,14.0,-999.0,59,-99.99,,,0.00,weatherlink.com 1.10,2013-03-07 00:18:00,
2013-03-06 17:33:00,35.3,29.0,29.69,West,261,16.0,-999.0,79,-99.99,,,0.00,weatherlink.com 1.10,2013-03-07 00:33:00,
2013-03-06 17:48:00,32.6,30.0,29.71,WSW,247,6.0,-999.0,88,-99.99,,,0.00,weatherlink.com 1.10,2013-03-07 00:48:00,
2013-03-06 18:03:00,32.3,30.0,29.71,WSW,248,2.0,-999.0,89,-99.99,,,0.00,weatherlink.com 1.10,2013-03-07 01:03:00,
2013-03-06 18:17:00,32.3,30.0,29.71,SW,225,2.0,-999.0,90,-99.99,,,0.00,weatherlink.com 1.10,2013-03-07 01:17:00,
2013-03-06 18:33:00,32.1,30.0,29.72,South,180,4.0,-999.0,90,-99.99,,,0.00,weatherlink.com 1.10,2013-03-07 01:33:00,
2013-03-06 18:48:00,31.8,29.0,29.73,South,180,2.0,-999.0,90,-99.99,,,0.00,weatherlink.com 1.10,2013-03-07 01:48:00,
2013-03-06 19:03:00,31.7,29.0,29.75,South,174,3.0,-999.0,90,-99.99,,,0.00,weatherlink.com 1.10,2013-03-07 02:03:00,
2013-03-06 19:17:00,31.7,29.0,29.76,South,172,0.0,-999.0,91,-99.99,,,0.00,weatherlink.com 1.10,2013-03-07 02:17:00,
2013-03-06 19:33:00,31.1,29.0,29.76,South,172,0.0,-999.0,90,-99.99,,,0.00,weatherlink.com 1.10,2013-03-07 02:33:00,
2013-03-06 19:48:00,30.8,29.0,29.76,South,171,0.0,-999.0,91,-99.99,,,0.00,weatherlink.com 1.10,2013-03-07 02:48:00,
2013-03-06 20:02:00,30.6,28.0,29.77,South,171,0.0,-999.0,91,-99.99,,,0.00,weatherlink.com 1.10,2013-03-07 03:02:00,
2013-03-06 20:18:00,30.3,28.0,29.78,South,171,0.0,-999.0,91,-99.99,,,0.00,weatherlink.com 1.10,2013-03-07 03:18:00,
2013-03-06 20:33:00,30.2,28.0,29.80,South,171,0.0,-999.0,91,-99.99,,,0.00,weatherlink.com 1.10,2013-03-07 03:33:00,
2013-03-06 20:48:00,30.0,28.0,29.80,South,171,0.0,-999.0,91,-99.99,,,0.00,weatherlink.com 1.10,2013-03-07 03:48:00,
2013-03-06 21:03:00,29.7,27.0,29.80,South,171,0.0,-999.0,91,-99.99,,,0.00,weatherlink.com 1.10,2013-03-07 04:03:00,
2013-03-06 21:18:00,29.4,27.0,29.81,South,171,0.0,-999.0,90,-99.99,,,0.00,weatherlink.com 1.10,2013-03-07 04:18:00,
2013-03-06 21:33:00,29.2,27.0,29.83,South,171,0.0,-999.0,90,-99.99,,,0.00,weatherlink.com 1.10,2013-03-07 04:33:00,
2013-03-06 21:48:00,28.8,26.0,29.84,South,171,0.0,-999.0,90,-99.99,,,0.00,weatherlink.com 1.10,2013-03-07 04:48:00,
2013-03-06 22:03:00,28.4,26.0,29.83,South,171,0.0,-999.0,89,-99.99,,,0.00,weatherlink.com 1.10,2013-03-07 05:03:00,
2013-03-06 22:18:00,27.6,25.0,29.81,South,171,0.0,-999.0,89,-99.99,,,0.00,weatherlink.com 1.10,2013-03-07 05:18:00,
2013-03-06 22:33:00,27.1,24.0,29.81,South,170,0.0,-999.0,89,-99.99,,,0.00,weatherlink.com 1.10,2013-03-07 05:33:00,
2013-03-06 22:48:00,27.4,24.0,29.81,South,170,0.0,-999.0,87,-99.99,,,0.00,weatherlink.com 1.10,2013-03-07 05:48:00,
2013-03-06 23:03:00,27.5,24.0,29.81,South,170,0.0,-999.0,85,-99.99,,,0.00,weatherlink.com 1.10,2013-03-07 06:03:00,
2013-03-06 23:18:00,28.0,23.0,29.82,South,170,0.0,-999.0,81,-99.99,,,0.00,weatherlink.com 1.10,2013-03-07 06:18:00,
2013-03-06 23:33:00,28.0,23.0,29.82,South,169,0.0,-999.0,82,-99.99,,,0.00,weatherlink.com 1.10,2013-03-07 06:33:00,
2013-03-06 23:48:00,27.9,23.0,29.82,South,169,0.0,-999.0,82,-99.99,,,0.00,weatherlink.com 1.10,2013-03-07 06:48:00,